Carl Junction, Missouri
Current Conditions -  °F | °C
As of 9:53 AM on Tuesday 21 Oct 2014 (Local Time) from KJLN Reporting Station
Light Fog Light Fog  
Wind Chill: 59°   Ceiling: Unl
Heat Index: 59°   Visibility: 4mi
Dew Point: 58°   Wind: 0mph
Humidity: 96%   Direction: NA
Pressure: 30.14"   Gusts: NA
Location:  37.18°N, 94.57°W
Report Text: KJLN 211453Z 00000KT 4SM BCFG BR CLR 15/14 A3014 RMK AO2 SLP204 T01500144 51013
Loading
Personal Weather Stations






























Interactive Weather Map
Tropical Storm Tracking
New forecast layout! Learn more

10-Day Weather Forecast

Advertisements
Track Severe Weather on mobile